KSYN

Details ICAO KSYN
Name Stanton Airfield
Region United States
Timezone America/Chicago (UTC-5.0)
Plans Departing 0
Arriving 1
Stats Elevation 920 ft / 280 m (AMSL)
Location 44.475522° -93.016322°
Runways 2
Magnetic Variation 0.030° E
Sunrise 2018-05-26 10:35:48 UTC / 2018-05-26 05:35:48 Local
Sunset 2018-05-27 01:45:21 UTC / 2018-05-26 20:45:21 Local
Advertisement - Login to hide

Runways

ID Width Length Bearing (true) Bearing (mag) Surface Threshold Offset Overrun Length
09 300 ft / 91 m 1,998 ft / 609 m 93.00° 92.97° Grass 0 ft / 0 m 0 ft / 0 m
18 300 ft / 91 m 2,584 ft / 788 m 183.00° 182.97° Grass 0 ft / 0 m 0 ft / 0 m
27 300 ft / 91 m 1,998 ft / 609 m 273.00° 272.97° Grass 0 ft / 0 m 0 ft / 0 m
36 300 ft / 91 m 2,584 ft / 788 m 3.00° 2.97° Grass 0 ft / 0 m 0 ft / 0 m

Map

Weather


0- 5 10 15 20 25 30 35+ Temperature / ° C

Clouds and Precipitation
Forecast for 2018-05-26 18:00 UTC. Updated 5 hours ago

Ground ~20,000 ft ~40,000 ft Winds

METAR

KSYN 262155Z AUTO 28006KT 10SM CLR 33/13 A2970 RMK AO2 T03290130

TAF

Not found
Warning: Do not use this data for real-world aviation or navigation. No guarantee of current accuracy is given.